createdAt,value
2018-07-05T00:02:10.260Z,69.00
2018-07-05T00:04:57.075Z,67.60
2018-07-05T00:07:43.864Z,68.30
2018-07-05T00:10:30.564Z,67.90
2018-07-05T00:13:17.024Z,67.60
2018-07-05T00:16:03.791Z,67.40
2018-07-05T00:21:30.955Z,67.90
2018-07-05T00:24:17.567Z,68.90
2018-07-05T00:27:03.972Z,68.20
2018-07-05T00:29:50.490Z,68.00
2018-07-05T00:32:37.288Z,67.20
2018-07-05T00:35:23.889Z,67.30
2018-07-05T00:38:10.435Z,67.10
2018-07-05T00:40:56.989Z,67.60
2018-07-05T00:43:43.416Z,68.10
2018-07-05T00:46:30.028Z,69.00
2018-07-05T00:57:18.080Z,71.80
2018-07-05T01:00:04.652Z,73.30
2018-07-05T01:02:51.031Z,72.70
2018-07-05T01:05:37.623Z,73.10
2018-07-05T01:08:24.331Z,73.10
2018-07-05T01:11:10.917Z,73.10
2018-07-05T01:16:38.064Z,73.50
2018-07-05T01:19:24.627Z,73.10
2018-07-05T01:22:11.296Z,73.80
2018-07-05T01:27:38.509Z,74.30
2018-07-05T01:30:24.999Z,74.40
2018-07-05T01:33:11.457Z,75.20
2018-07-05T01:35:58.033Z,75.80
2018-07-05T01:38:44.585Z,75.10
2018-07-05T01:44:11.668Z,75.40
2018-07-05T01:46:58.299Z,75.80
2018-07-05T01:49:44.627Z,76.10
2018-07-05T01:52:31.416Z,76.70
2018-07-05T01:55:18.011Z,76.20
2018-07-05T02:00:45.384Z,76.50
2018-07-05T02:03:31.799Z,76.70
2018-07-05T02:06:18.272Z,76.40
2018-07-05T02:09:05.124Z,76.30
2018-07-05T02:11:51.603Z,75.60
2018-07-05T02:14:38.364Z,75.40
2018-07-05T02:17:24.756Z,75.40
2018-07-05T02:20:11.283Z,75.00
2018-07-05T02:22:57.636Z,75.10
2018-07-05T02:28:24.511Z,76.60
2018-07-05T02:31:11.100Z,76.70
2018-07-05T02:33:59.265Z,76.40
2018-07-05T02:36:45.672Z,77.10
2018-07-05T02:39:51.896Z,77.40
2018-07-05T02:42:38.625Z,77.50
2018-07-05T02:45:25.144Z,79.80
2018-07-05T02:48:11.730Z,79.30
2018-07-05T02:50:58.176Z,78.60
2018-07-05T02:53:44.926Z,78.70
2018-07-05T02:59:11.820Z,79.30
2018-07-05T03:01:58.469Z,79.60
2018-07-05T03:04:45.064Z,79.80
2018-07-05T03:10:11.896Z,80.80
2018-07-05T03:12:58.342Z,81.50
2018-07-05T03:15:44.853Z,82.20
2018-07-05T03:18:31.243Z,82.20
2018-07-05T03:21:17.772Z,82.60
2018-07-05T03:24:04.455Z,83.30
2018-07-05T03:29:31.411Z,82.00
2018-07-05T03:32:18.092Z,80.30
2018-07-05T03:35:04.630Z,80.10
2018-07-05T03:37:51.536Z,80.20
2018-07-05T03:40:38.087Z,80.40
2018-07-05T03:43:24.687Z,79.70
2018-07-05T03:46:11.244Z,78.90
2018-07-05T03:48:57.731Z,77.70
2018-07-05T03:51:44.368Z,76.90
2018-07-05T03:54:30.984Z,75.40
2018-07-05T03:57:17.612Z,74.70
2018-07-05T04:02:44.598Z,74.20
2018-07-05T04:05:31.123Z,74.20
2018-07-05T04:08:17.892Z,75.00
2018-07-05T04:11:04.764Z,75.30
2018-07-05T04:13:51.290Z,76.00
2018-07-05T04:16:37.820Z,76.40
2018-07-05T04:19:24.320Z,76.10
2018-07-05T04:22:10.696Z,76.40
2018-07-05T04:24:57.339Z,75.50
2018-07-05T04:27:43.956Z,75.60
2018-07-05T04:30:30.417Z,75.30
2018-07-05T04:38:37.665Z,73.90
2018-07-05T04:41:24.332Z,72.90
2018-07-05T04:44:11.082Z,72.40
2018-07-05T04:46:57.594Z,72.20
2018-07-05T04:49:43.999Z,71.80
2018-07-05T04:52:30.499Z,71.40
2018-07-05T04:55:17.184Z,71.50
2018-07-05T04:58:04.005Z,69.30
2018-07-05T05:00:50.611Z,68.10
2018-07-05T05:03:37.108Z,68.40
2018-07-05T05:06:23.724Z,68.10
2018-07-05T05:09:10.287Z,67.90
2018-07-05T05:11:56.836Z,67.30
2018-07-05T05:14:43.344Z,66.30
2018-07-05T05:17:29.930Z,66.50
2018-07-05T05:20:16.563Z,65.90
2018-07-05T05:23:03.240Z,64.20
2018-07-05T05:25:49.746Z,63.90
2018-07-05T05:28:36.371Z,64.20
2018-07-05T05:31:23.019Z,63.80
2018-07-05T05:34:09.584Z,62.70
2018-07-05T05:36:56.279Z,62.90
2018-07-05T05:39:42.809Z,63.40
2018-07-05T05:42:29.480Z,63.20
2018-07-05T05:45:16.041Z,63.00
2018-07-05T05:48:02.516Z,61.00
2018-07-05T05:53:29.467Z,60.80
2018-07-05T05:56:15.975Z,61.30
2018-07-05T06:01:42.652Z,61.80
2018-07-05T06:04:29.084Z,62.20
2018-07-05T06:07:15.499Z,59.60
2018-07-05T06:10:02.251Z,60.40
2018-07-05T06:15:28.864Z,58.00
2018-07-05T06:18:15.274Z,57.60
2018-07-05T06:21:01.716Z,57.60
2018-07-05T06:29:08.800Z,57.30
2018-07-05T06:34:35.384Z,56.30
2018-07-05T06:37:22.057Z,55.70
2018-07-05T06:40:08.771Z,55.70
2018-07-05T06:42:55.260Z,55.00
2018-07-05T06:48:21.955Z,53.50
2018-07-05T06:51:08.608Z,52.70
2018-07-05T06:56:35.458Z,51.70
2018-07-05T06:59:21.971Z,51.20
2018-07-05T07:02:08.538Z,50.60
2018-07-05T07:04:55.294Z,50.20
2018-07-05T07:13:02.404Z,50.80
2018-07-05T07:15:48.949Z,50.70
2018-07-05T07:18:35.545Z,49.80
2018-07-05T07:21:22.266Z,49.70
2018-07-05T07:24:08.828Z,49.40
2018-07-05T07:29:35.745Z,49.10
2018-07-05T07:32:22.196Z,48.90
2018-07-05T07:35:08.606Z,48.60
2018-07-05T07:43:03.940Z,49.20
2018-07-05T07:45:31.966Z,48.90
2018-07-05T07:47:59.604Z,48.30
2018-07-05T07:50:27.436Z,46.70
2018-07-05T07:52:55.247Z,46.30
2018-07-05T07:55:23.072Z,46.10
2018-07-05T07:57:50.884Z,46.00
2018-07-05T08:00:18.712Z,47.00
2018-07-05T08:07:42.496Z,46.70
2018-07-05T08:10:10.319Z,46.50
2018-07-05T08:12:38.131Z,45.90
2018-07-05T08:15:05.987Z,44.90
2018-07-05T08:17:33.831Z,44.90
2018-07-05T08:20:01.686Z,44.40
2018-07-05T08:22:29.490Z,44.50
2018-07-05T08:24:57.320Z,45.10
2018-07-05T08:27:25.128Z,44.90
2018-07-05T08:29:52.956Z,44.50
2018-07-05T08:32:20.764Z,44.70
2018-07-05T08:34:48.584Z,44.30
2018-07-05T08:37:16.413Z,43.50
2018-07-05T08:39:44.247Z,43.20
2018-07-05T08:42:12.078Z,42.70
2018-07-05T08:44:39.880Z,41.20
2018-07-05T08:47:07.709Z,41.70
2018-07-05T08:49:35.796Z,41.50
2018-07-05T08:52:03.624Z,40.50
2018-07-05T08:54:31.429Z,40.20
2018-07-05T08:56:59.259Z,40.40
2018-07-05T08:59:27.076Z,39.50
2018-07-05T09:01:54.900Z,40.30
2018-07-05T09:04:22.699Z,39.60
2018-07-05T09:06:50.528Z,39.80
2018-07-05T09:14:14.387Z,37.40
2018-07-05T09:16:42.216Z,38.40
2018-07-05T09:19:10.640Z,36.80
2018-07-05T09:21:38.468Z,37.50
2018-07-05T09:24:06.275Z,36.60
2018-07-05T09:26:34.095Z,36.70
2018-07-05T09:29:01.903Z,36.60
2018-07-05T09:31:29.736Z,36.50
2018-07-05T09:33:57.544Z,36.40
2018-07-05T09:36:25.576Z,36.90
2018-07-05T09:38:53.383Z,36.10
2018-07-05T09:41:21.211Z,35.70
2018-07-05T09:43:49.026Z,36.40
2018-07-05T09:46:16.854Z,35.20
2018-07-05T09:48:44.663Z,34.40
2018-07-05T09:51:12.493Z,34.90
2018-07-05T09:53:40.298Z,34.10
2018-07-05T09:56:08.132Z,34.80
2018-07-05T09:58:35.944Z,34.10
2018-07-05T10:01:03.783Z,35.30
2018-07-05T10:03:31.627Z,34.90
2018-07-05T10:05:59.447Z,34.10
2018-07-05T10:08:27.259Z,34.70
2018-07-05T10:10:55.088Z,33.80
2018-07-05T10:15:50.913Z,33.20
2018-07-05T10:18:18.732Z,33.50
2018-07-05T10:20:46.556Z,34.20
2018-07-05T10:30:50.756Z,32.70
2018-07-05T10:33:37.232Z,33.00
2018-07-05T10:36:09.963Z,32.30
2018-07-05T10:38:37.773Z,33.20
2018-07-05T10:41:17.999Z,32.20
2018-07-05T10:44:04.443Z,32.50
2018-07-05T10:46:51.032Z,33.00
2018-07-05T10:49:37.479Z,31.80
2018-07-05T10:52:23.812Z,31.90
2018-07-05T10:55:10.489Z,31.70
2018-07-05T10:57:56.871Z,30.90
2018-07-05T11:00:43.468Z,30.90
2018-07-05T11:03:30.000Z,31.40
2018-07-05T11:06:16.387Z,31.40
2018-07-05T11:09:02.812Z,31.10
2018-07-05T11:11:49.471Z,30.60
2018-07-05T11:17:16.389Z,30.40
2018-07-05T11:20:02.876Z,30.00
2018-07-05T11:22:49.507Z,30.40
2018-07-05T11:25:35.778Z,30.20
2018-07-05T11:28:22.287Z,30.00
2018-07-05T11:31:08.690Z,30.20
2018-07-05T11:33:55.200Z,30.20
2018-07-05T11:36:41.516Z,30.60
2018-07-05T11:39:28.887Z,29.80
2018-07-05T11:42:15.516Z,29.80
2018-07-05T11:47:42.027Z,28.80
2018-07-05T11:50:28.586Z,30.00
2018-07-05T11:53:14.962Z,28.60
2018-07-05T11:56:01.388Z,28.30
2018-07-05T12:01:28.167Z,28.20
2018-07-05T12:04:14.898Z,28.80
2018-07-05T12:09:41.769Z,28.50
2018-07-05T12:12:28.447Z,28.60
2018-07-05T12:15:14.796Z,28.70
2018-07-05T12:18:01.469Z,27.90
2018-07-05T12:20:47.884Z,27.00
2018-07-05T12:26:14.907Z,27.70
2018-07-05T12:29:01.413Z,27.90
2018-07-05T12:31:47.963Z,27.30
2018-07-05T12:34:34.457Z,27.70
2018-07-05T12:37:21.151Z,28.10
2018-07-05T12:42:47.757Z,27.90
2018-07-05T12:45:34.380Z,27.70
2018-07-05T12:48:20.935Z,28.10
2018-07-05T12:51:07.404Z,27.80
2018-07-05T12:53:54.039Z,28.20
2018-07-05T12:56:41.107Z,28.00
2018-07-05T12:59:27.476Z,27.80
2018-07-05T13:02:14.187Z,27.30
2018-07-05T13:05:00.624Z,27.30
2018-07-05T13:07:46.971Z,27.00
2018-07-05T13:10:33.544Z,27.50
2018-07-05T13:13:20.032Z,28.20
2018-07-05T13:16:06.611Z,28.90
2018-07-05T13:18:53.163Z,28.90
2018-07-05T13:21:39.808Z,29.90
2018-07-05T13:24:26.524Z,29.30
2018-07-05T13:27:13.128Z,29.30
2018-07-05T13:29:59.564Z,30.00
2018-07-05T13:32:45.963Z,30.20
2018-07-05T13:35:32.300Z,33.00
2018-07-05T13:38:19.039Z,34.40
2018-07-05T13:41:05.620Z,35.00
2018-07-05T13:43:52.139Z,36.20
2018-07-05T13:46:38.628Z,36.80
2018-07-05T13:49:25.164Z,37.70
2018-07-05T13:54:52.119Z,38.70
2018-07-05T13:57:38.931Z,39.10
2018-07-05T14:00:25.608Z,40.30
2018-07-05T14:03:12.199Z,40.80
2018-07-05T14:11:19.624Z,54.40
2018-07-05T14:14:06.208Z,55.50
2018-07-05T14:22:13.471Z,54.80
2018-07-05T14:25:00.145Z,52.20
2018-07-05T14:27:46.731Z,49.60
2018-07-05T14:30:33.435Z,48.80
2018-07-05T14:33:20.135Z,47.10
2018-07-05T14:38:47.232Z,44.70
2018-07-05T14:41:33.723Z,45.60
2018-07-05T14:44:20.240Z,44.00
2018-07-05T14:47:06.816Z,43.30
2018-07-05T14:49:53.387Z,43.40
2018-07-05T14:52:39.970Z,41.70
2018-07-05T14:55:26.473Z,41.60
2018-07-05T14:58:12.964Z,47.40
2018-07-05T15:00:59.388Z,49.00
2018-07-05T15:03:46.180Z,47.30
2018-07-05T15:06:32.980Z,45.80
2018-07-05T15:11:59.880Z,46.20
2018-07-05T15:14:46.411Z,44.50
2018-07-05T15:17:33.030Z,42.80
2018-07-05T15:20:19.693Z,42.80
2018-07-05T15:25:46.649Z,39.80
2018-07-05T15:28:33.187Z,41.40
2018-07-05T15:34:00.022Z,41.50
2018-07-05T15:36:46.603Z,41.90
2018-07-05T15:39:33.160Z,40.90
2018-07-05T15:42:19.656Z,40.40
2018-07-05T15:45:06.012Z,38.60
2018-07-05T15:47:52.404Z,37.00
2018-07-05T15:50:39.044Z,35.80
2018-07-05T15:53:25.768Z,33.40
2018-07-05T15:56:12.435Z,31.40
2018-07-05T16:01:39.263Z,30.00
2018-07-05T16:04:25.824Z,30.20
2018-07-05T16:07:12.215Z,31.10
2018-07-05T16:09:58.949Z,30.50
2018-07-05T16:12:45.330Z,30.60
2018-07-05T16:15:31.789Z,29.30
2018-07-05T16:20:58.695Z,30.70
2018-07-05T16:23:45.108Z,33.00
2018-07-05T16:26:31.618Z,33.40
2018-07-05T16:29:18.049Z,34.00
2018-07-05T16:32:04.495Z,34.90
2018-07-05T16:34:50.980Z,35.00
2018-07-05T16:37:37.528Z,35.50
2018-07-05T16:40:23.959Z,35.20
2018-07-05T16:45:50.915Z,34.70
2018-07-05T16:48:37.297Z,33.20
2018-07-05T16:51:23.924Z,32.20
2018-07-05T16:54:10.643Z,32.30
2018-07-05T16:56:57.232Z,33.60
2018-07-05T16:59:43.872Z,34.30
2018-07-05T17:02:30.495Z,34.00
2018-07-05T17:05:16.900Z,34.50
2018-07-05T17:08:03.521Z,34.00
2018-07-05T17:10:49.995Z,33.30
2018-07-05T17:13:36.463Z,33.30
2018-07-05T17:16:23.016Z,34.00
2018-07-05T17:19:09.560Z,34.70
2018-07-05T17:21:56.310Z,34.90
2018-07-05T17:24:42.779Z,35.20
2018-07-05T17:27:29.287Z,35.50
2018-07-05T17:30:16.025Z,36.00
2018-07-05T17:33:02.452Z,36.00
2018-07-05T17:35:48.921Z,35.90
2018-07-05T17:38:35.480Z,36.20
2018-07-05T17:41:22.008Z,43.30
2018-07-05T17:44:08.419Z,46.10
2018-07-05T17:52:15.431Z,49.70
2018-07-05T17:55:02.477Z,51.50
2018-07-05T17:57:49.085Z,52.70
2018-07-05T18:00:35.671Z,54.60
2018-07-05T18:03:22.216Z,56.30
2018-07-05T18:08:50.103Z,57.50
2018-07-05T18:11:36.689Z,57.80
2018-07-05T18:14:23.354Z,58.10
2018-07-05T18:17:10.037Z,58.60
2018-07-05T18:19:56.506Z,59.20
2018-07-05T18:22:43.048Z,59.70
2018-07-05T18:25:29.879Z,59.80
2018-07-05T18:28:16.391Z,59.50
2018-07-05T18:31:02.844Z,59.40
2018-07-05T18:33:49.530Z,59.80
2018-07-05T18:36:36.255Z,60.50
2018-07-05T18:39:22.800Z,61.10
2018-07-05T18:42:09.608Z,61.60
2018-07-05T18:44:56.075Z,61.90
2018-07-05T18:47:42.800Z,61.80
2018-07-05T18:50:29.377Z,61.70
2018-07-05T18:53:15.820Z,61.60
2018-07-05T18:56:02.528Z,61.40
2018-07-05T18:58:49.046Z,61.10
2018-07-05T19:01:35.491Z,61.00
2018-07-05T19:04:22.039Z,61.00
2018-07-05T19:07:08.772Z,60.70
2018-07-05T19:12:35.662Z,61.30
2018-07-05T19:15:22.276Z,61.90
2018-07-05T19:18:08.925Z,62.30
2018-07-05T19:20:55.484Z,62.50
2018-07-05T19:23:42.099Z,62.90
2018-07-05T19:29:09.184Z,62.80
2018-07-05T19:31:55.724Z,62.60
2018-07-05T19:34:42.292Z,62.20
2018-07-05T19:37:28.899Z,62.20
2018-07-05T19:40:15.360Z,62.10
2018-07-05T19:43:02.014Z,62.30
2018-07-05T19:45:48.544Z,63.00
2018-07-05T19:48:35.020Z,63.70
2018-07-05T19:51:21.628Z,63.80
2018-07-05T19:54:08.213Z,63.70
2018-07-05T19:59:35.112Z,62.60
2018-07-05T20:02:21.748Z,62.80
2018-07-05T20:05:08.243Z,63.70
2018-07-05T20:07:54.983Z,63.80
2018-07-05T20:10:41.733Z,65.10
2018-07-05T20:13:28.144Z,67.00
2018-07-05T20:16:14.572Z,69.50
2018-07-05T20:21:41.505Z,71.60
2018-07-05T20:24:27.901Z,72.10
2018-07-05T20:29:54.683Z,72.90
2018-07-05T20:32:41.293Z,72.30
2018-07-05T20:35:27.994Z,72.00
2018-07-05T20:40:55.236Z,71.60
2018-07-05T20:43:42.176Z,71.10
2018-07-05T20:46:28.791Z,71.00
2018-07-05T20:49:15.395Z,70.90
2018-07-05T20:52:01.956Z,70.90
2018-07-05T20:54:48.507Z,70.90
2018-07-05T20:57:35.036Z,71.10
2018-07-05T21:00:21.727Z,71.30
2018-07-05T21:03:08.340Z,72.20
2018-07-05T21:05:54.964Z,72.30
2018-07-05T21:11:21.812Z,73.10
2018-07-05T21:14:08.183Z,73.30
2018-07-05T21:16:54.771Z,73.20
2018-07-05T21:19:41.418Z,73.20
2018-07-05T21:22:27.867Z,72.80
2018-07-05T21:25:14.324Z,72.90
2018-07-05T21:28:00.631Z,72.90
2018-07-05T21:33:27.487Z,73.20
2018-07-05T21:36:14.292Z,73.20
2018-07-05T21:39:01.009Z,73.10
2018-07-05T21:41:47.561Z,73.10
2018-07-05T21:44:34.071Z,73.30
2018-07-05T21:47:20.676Z,73.20
2018-07-05T21:50:07.323Z,73.30
2018-07-05T21:52:53.723Z,73.40
2018-07-05T21:58:20.713Z,73.60
2018-07-05T22:01:07.416Z,73.70
2018-07-05T22:03:54.016Z,73.40
2018-07-05T22:06:40.772Z,73.30
2018-07-05T22:09:27.224Z,73.20
2018-07-05T22:12:13.760Z,73.20
2018-07-05T22:15:00.284Z,73.30
2018-07-05T22:17:52.220Z,73.40
2018-07-05T22:23:30.247Z,73.20
2018-07-05T22:26:22.252Z,73.10
2018-07-05T22:29:14.218Z,73.30
2018-07-05T22:32:00.744Z,72.80
2018-07-05T22:34:47.351Z,72.50
2018-07-05T22:37:33.759Z,72.20
2018-07-05T22:40:20.196Z,72.90
2018-07-05T22:43:06.936Z,72.30
2018-07-05T22:45:53.424Z,72.20
2018-07-05T22:48:39.991Z,71.60
2018-07-05T22:51:26.588Z,71.20
2018-07-05T22:54:13.147Z,69.90
2018-07-05T22:56:59.959Z,69.60
2018-07-05T22:59:46.527Z,69.10
2018-07-05T23:05:13.464Z,66.60
2018-07-05T23:08:00.256Z,65.80
2018-07-05T23:10:46.827Z,64.70
2018-07-05T23:13:33.256Z,63.70
2018-07-05T23:16:19.856Z,63.00
2018-07-05T23:19:06.540Z,62.60
2018-07-05T23:21:53.205Z,62.70
2018-07-05T23:24:39.703Z,62.40
2018-07-05T23:30:06.665Z,61.80
2018-07-05T23:32:53.253Z,61.80
2018-07-05T23:35:39.764Z,62.00
2018-07-05T23:38:26.443Z,62.10
2018-07-05T23:41:12.824Z,62.50
2018-07-05T23:43:59.279Z,62.70
2018-07-05T23:46:45.747Z,63.20
2018-07-05T23:49:32.440Z,63.70
2018-07-05T23:52:19.063Z,64.20
2018-07-05T23:55:05.579Z,64.80
2018-07-05T23:57:51.890Z,65.10
